createdAt,value
2022-08-18T00:01:58.746Z,99.90
2022-08-18T00:04:35.721Z,99.90
2022-08-18T00:07:05.967Z,99.90
2022-08-18T00:09:35.893Z,99.90
2022-08-18T00:12:06.566Z,99.90
2022-08-18T00:14:33.911Z,99.90
2022-08-18T00:17:01.281Z,99.90
2022-08-18T00:19:45.962Z,99.90
2022-08-18T00:22:19.011Z,99.90
2022-08-18T00:24:49.992Z,99.90
2022-08-18T00:27:21.821Z,99.90
2022-08-18T00:29:50.242Z,99.90
2022-08-18T00:32:20.917Z,99.90
2022-08-18T00:34:48.251Z,99.90
2022-08-18T00:37:15.301Z,99.90
2022-08-18T00:39:46.596Z,99.90
2022-08-18T00:42:27.664Z,99.90
2022-08-18T00:44:59.228Z,99.90
2022-08-18T00:47:42.583Z,99.90
2022-08-18T00:50:37.048Z,99.90
2022-08-18T00:53:14.730Z,99.90
2022-08-18T00:55:53.650Z,99.90
2022-08-18T00:58:47.314Z,99.90
2022-08-18T01:01:15.991Z,99.90
2022-08-18T01:03:44.277Z,99.90
2022-08-18T01:06:32.403Z,99.90
2022-08-18T01:08:59.875Z,99.90
2022-08-18T01:11:26.885Z,99.90
2022-08-18T01:13:54.062Z,99.90
2022-08-18T01:16:40.368Z,99.90
2022-08-18T01:19:44.045Z,99.90
2022-08-18T01:22:29.250Z,99.90
2022-08-18T01:25:17.287Z,99.90
2022-08-18T01:27:44.400Z,99.90
2022-08-18T01:30:15.052Z,99.90
2022-08-18T01:32:45.893Z,99.90
2022-08-18T01:35:15.915Z,99.90
2022-08-18T01:37:43.174Z,99.90
2022-08-18T01:41:25.813Z,99.90
2022-08-18T01:43:03.697Z,99.90
2022-08-18T01:45:33.449Z,99.90
2022-08-18T01:48:00.974Z,99.90
2022-08-18T01:50:30.331Z,99.90
2022-08-18T01:52:57.378Z,99.90
2022-08-18T01:55:28.473Z,99.90
2022-08-18T01:57:56.198Z,99.90
2022-08-18T02:00:25.003Z,99.90
2022-08-18T02:02:57.218Z,99.90
2022-08-18T02:05:43.599Z,99.90
2022-08-18T02:08:12.653Z,99.90
2022-08-18T02:10:40.422Z,99.90
2022-08-18T02:13:07.924Z,99.90
2022-08-18T02:15:35.174Z,99.90
2022-08-18T02:18:02.289Z,99.90
2022-08-18T02:20:29.382Z,99.90
2022-08-18T02:22:58.615Z,99.90
2022-08-18T02:25:25.828Z,99.90
2022-08-18T02:27:53.334Z,99.90
2022-08-18T02:30:20.908Z,99.90
2022-08-18T02:32:48.354Z,99.90
2022-08-18T02:35:15.706Z,99.90
2022-08-18T02:37:47.906Z,99.90
2022-08-18T02:40:17.014Z,99.90
2022-08-18T02:42:45.780Z,99.90
2022-08-18T02:45:13.352Z,99.90
2022-08-18T02:47:43.024Z,99.90
2022-08-18T02:50:13.490Z,99.90
2022-08-18T02:52:41.445Z,99.90
2022-08-18T02:55:09.757Z,99.90
2022-08-18T02:57:36.737Z,99.90
2022-08-18T03:00:04.606Z,99.90
2022-08-18T03:02:32.311Z,99.90
2022-08-18T03:04:59.286Z,99.90
2022-08-18T03:07:26.202Z,99.90
2022-08-18T03:09:53.314Z,99.90
2022-08-18T03:12:20.338Z,99.90
2022-08-18T03:14:47.262Z,99.90
2022-08-18T03:17:15.052Z,99.90
2022-08-18T03:19:47.141Z,99.90
2022-08-18T03:22:28.249Z,99.90
2022-08-18T03:24:56.958Z,99.90
2022-08-18T03:27:24.495Z,99.90
2022-08-18T03:29:51.545Z,99.90
2022-08-18T03:32:18.868Z,99.90
2022-08-18T03:34:46.130Z,99.90
2022-08-18T03:37:15.921Z,99.90
2022-08-18T03:39:43.012Z,99.90
2022-08-18T03:42:10.230Z,99.90
2022-08-18T03:44:37.438Z,99.90
2022-08-18T03:47:08.583Z,99.90
2022-08-18T03:49:35.805Z,99.90
2022-08-18T03:52:03.538Z,99.90
2022-08-18T03:54:32.319Z,99.90
2022-08-18T03:57:00.476Z,99.90
2022-08-18T03:59:30.696Z,99.90
2022-08-18T04:01:57.862Z,99.90
2022-08-18T04:04:27.680Z,99.90
2022-08-18T04:07:04.449Z,99.90
2022-08-18T04:09:33.979Z,99.90
2022-08-18T04:12:16.712Z,99.90
2022-08-18T04:14:48.453Z,99.90
2022-08-18T04:17:24.453Z,99.90
2022-08-18T04:19:53.245Z,99.90
2022-08-18T04:22:20.457Z,99.90
2022-08-18T04:24:49.701Z,99.90
2022-08-18T04:27:17.808Z,99.90
2022-08-18T04:29:44.740Z,99.90
2022-08-18T04:32:11.916Z,99.90
2022-08-18T04:34:39.132Z,99.90
2022-08-18T04:37:08.888Z,99.90
2022-08-18T04:39:35.848Z,99.90
2022-08-18T04:42:04.628Z,99.90
2022-08-18T04:44:31.893Z,99.90
2022-08-18T04:47:01.257Z,99.90
2022-08-18T04:49:28.487Z,99.90
2022-08-18T04:52:36.138Z,99.90
2022-08-18T04:55:02.303Z,99.90
2022-08-18T04:57:33.633Z,99.90
2022-08-18T05:00:03.048Z,99.90
2022-08-18T05:02:31.544Z,99.90
2022-08-18T05:04:58.558Z,99.90
2022-08-18T05:07:25.668Z,99.90
2022-08-18T05:09:55.637Z,99.90
2022-08-18T05:12:26.172Z,99.90
2022-08-18T05:14:54.466Z,99.90
2022-08-18T05:17:21.887Z,99.90
2022-08-18T05:19:51.724Z,99.90
2022-08-18T05:22:27.890Z,99.90
2022-08-18T05:24:56.022Z,99.90
2022-08-18T05:27:22.918Z,99.90
2022-08-18T05:29:51.665Z,99.90
2022-08-18T05:32:30.270Z,99.90
2022-08-18T05:34:59.744Z,99.90
2022-08-18T05:37:38.837Z,99.90
2022-08-18T05:40:11.291Z,99.90
2022-08-18T05:42:40.601Z,99.90
2022-08-18T05:45:15.572Z,99.90
2022-08-18T05:47:42.819Z,99.90
2022-08-18T05:50:13.489Z,99.90
2022-08-18T05:52:49.287Z,99.90
2022-08-18T05:55:47.742Z,99.90
2022-08-18T05:58:23.753Z,99.90
2022-08-18T06:01:05.082Z,99.90
2022-08-18T06:03:45.075Z,99.90
2022-08-18T06:06:19.503Z,99.90
2022-08-18T06:09:05.788Z,99.90
2022-08-18T06:11:33.141Z,99.90
2022-08-18T06:14:01.415Z,99.90
2022-08-18T06:16:37.376Z,99.90
2022-08-18T06:19:21.034Z,99.90
2022-08-18T06:21:56.197Z,99.90
2022-08-18T06:24:31.428Z,99.90
2022-08-18T06:27:03.637Z,99.90
2022-08-18T06:30:04.451Z,99.90
2022-08-18T06:33:09.327Z,99.90
2022-08-18T06:35:46.366Z,99.90
2022-08-18T06:38:36.874Z,99.90
2022-08-18T06:41:42.354Z,99.90
2022-08-18T06:44:32.455Z,99.90
2022-08-18T06:47:15.515Z,99.90
2022-08-18T06:49:42.727Z,99.90
2022-08-18T06:52:20.510Z,99.90
2022-08-18T06:54:51.298Z,99.90
2022-08-18T06:57:31.973Z,99.90
2022-08-18T07:00:03.936Z,99.90
2022-08-18T07:02:42.757Z,99.90
2022-08-18T07:05:19.685Z,99.90
2022-08-18T07:08:06.784Z,99.90
2022-08-18T07:10:50.125Z,99.90
2022-08-18T07:13:20.026Z,99.90
2022-08-18T07:15:48.552Z,98.90
2022-08-18T07:18:28.780Z,99.10
2022-08-18T07:21:00.803Z,96.90
2022-08-18T07:23:31.403Z,96.60
2022-08-18T07:26:05.349Z,94.20
2022-08-18T07:28:45.077Z,93.30
2022-08-18T07:31:24.944Z,93.10
2022-08-18T07:34:08.620Z,93.00
2022-08-18T07:36:47.653Z,92.80
2022-08-18T07:39:20.340Z,92.00
2022-08-18T07:42:06.421Z,92.00
2022-08-18T07:44:52.704Z,92.70
2022-08-18T07:47:41.268Z,90.60
2022-08-18T07:50:31.361Z,89.30
2022-08-18T07:53:34.918Z,90.80
2022-08-18T07:56:27.367Z,90.80
2022-08-18T07:59:20.343Z,90.00
2022-08-18T08:02:06.723Z,87.70
2022-08-18T08:04:41.139Z,88.70
2022-08-18T08:07:25.222Z,88.20
2022-08-18T08:10:03.443Z,90.20
2022-08-18T08:27:00.347Z,85.00
2022-08-18T08:29:51.412Z,86.30
2022-08-18T08:32:35.889Z,83.90
2022-08-18T08:35:50.514Z,85.70
2022-08-18T08:38:39.975Z,85.70
2022-08-18T08:41:21.402Z,80.30
2022-08-18T08:43:57.429Z,77.60
2022-08-18T08:46:32.038Z,75.40
2022-08-18T08:49:19.822Z,72.10
2022-08-18T08:51:56.863Z,70.40
2022-08-18T08:54:31.304Z,69.30
2022-08-18T08:57:01.304Z,64.50
2022-08-18T08:59:28.553Z,62.10
2022-08-18T09:02:47.211Z,62.90
2022-08-18T09:05:23.923Z,62.70
2022-08-18T09:08:19.757Z,61.50
2022-08-18T09:11:06.547Z,61.10
2022-08-18T09:13:36.412Z,59.90
2022-08-18T09:16:14.150Z,58.00
2022-08-18T09:19:19.147Z,59.30
2022-08-18T09:22:09.123Z,59.70
2022-08-18T09:24:47.665Z,56.20
2022-08-18T09:28:09.903Z,54.90
2022-08-18T09:30:42.132Z,54.60
2022-08-18T09:33:41.987Z,53.40
2022-08-18T09:36:30.687Z,53.20
2022-08-18T09:39:53.191Z,53.60
2022-08-18T09:42:49.680Z,56.30
2022-08-18T09:45:33.853Z,61.70
2022-08-18T09:48:25.346Z,59.50
2022-08-18T09:51:20.878Z,57.20
2022-08-18T09:53:52.307Z,55.50
2022-08-18T09:59:37.269Z,59.20
2022-08-18T10:05:19.092Z,53.40
2022-08-18T10:08:01.581Z,53.10
2022-08-18T10:17:13.341Z,63.40
2022-08-18T10:19:52.774Z,65.30
2022-08-18T10:22:46.365Z,65.20
2022-08-18T10:25:29.879Z,68.90
2022-08-18T10:27:57.194Z,68.30
2022-08-18T10:30:34.451Z,72.00
2022-08-18T10:33:17.214Z,71.30
2022-08-18T10:35:59.898Z,71.50
2022-08-18T10:38:45.909Z,72.40
2022-08-18T10:41:31.534Z,75.20
2022-08-18T10:44:01.348Z,75.70
2022-08-18T10:46:42.723Z,74.10
2022-08-18T10:49:13.931Z,73.00
2022-08-18T10:52:07.969Z,77.90
2022-08-18T10:54:54.894Z,75.70
2022-08-18T10:57:29.134Z,75.40
2022-08-18T11:00:08.410Z,78.50
2022-08-18T11:02:45.576Z,75.60
2022-08-18T11:05:21.192Z,73.60
2022-08-18T11:07:52.211Z,75.40
2022-08-18T11:10:57.762Z,78.50
2022-08-18T11:13:49.889Z,77.30
2022-08-18T11:16:17.153Z,73.30
2022-08-18T11:18:57.142Z,74.40
2022-08-18T11:21:41.976Z,73.30
2022-08-18T11:24:25.119Z,76.30
2022-08-18T11:26:53.374Z,75.60
2022-08-18T11:29:32.358Z,78.40
2022-08-18T11:32:36.875Z,75.40
2022-08-18T11:35:29.509Z,74.40
2022-08-18T11:38:03.337Z,79.30
2022-08-18T11:46:38.971Z,78.70
2022-08-18T11:49:58.299Z,78.40
2022-08-18T11:52:29.502Z,76.50
2022-08-18T11:55:16.713Z,75.90
2022-08-18T11:57:58.850Z,79.70
2022-08-18T12:00:53.573Z,77.50
2022-08-18T12:03:28.908Z,78.70
2022-08-18T12:06:19.195Z,74.90
2022-08-18T12:08:59.910Z,77.20
2022-08-18T12:11:33.997Z,77.20
2022-08-18T12:14:31.703Z,76.30
2022-08-18T12:16:57.783Z,76.20
2022-08-18T12:19:34.672Z,76.60
2022-08-18T12:22:13.443Z,78.00
2022-08-18T12:24:41.436Z,76.20
2022-08-18T12:27:20.402Z,76.40
2022-08-18T12:29:50.508Z,78.30
2022-08-18T12:32:46.531Z,78.90
2022-08-18T12:35:09.107Z,80.00
2022-08-18T12:38:00.396Z,84.20
2022-08-18T12:40:38.327Z,80.20
2022-08-18T12:43:06.522Z,81.30
2022-08-18T12:45:34.529Z,84.30
2022-08-18T12:48:04.840Z,80.70
2022-08-18T12:50:50.214Z,78.20
2022-08-18T12:53:29.093Z,82.00
2022-08-18T12:55:58.156Z,81.80
2022-08-18T12:58:25.175Z,84.20
2022-08-18T13:00:52.161Z,81.60
2022-08-18T13:03:20.106Z,79.70
2022-08-18T13:05:47.844Z,82.80
2022-08-18T13:08:30.367Z,81.90
2022-08-18T13:11:21.415Z,83.90
2022-08-18T13:13:52.730Z,81.70
2022-08-18T13:16:30.592Z,81.40
2022-08-18T13:19:06.196Z,82.20
2022-08-18T13:21:38.934Z,81.80
2022-08-18T13:24:09.404Z,79.70
2022-08-18T13:26:41.938Z,81.10
2022-08-18T13:29:10.156Z,80.60
2022-08-18T13:31:38.859Z,78.70
2022-08-18T13:34:11.880Z,82.80
2022-08-18T13:36:46.243Z,78.70
2022-08-18T13:39:20.956Z,80.30
2022-08-18T13:41:53.119Z,80.10
2022-08-18T13:44:22.542Z,80.40
2022-08-18T13:46:55.535Z,82.50
2022-08-18T13:49:30.300Z,81.50
2022-08-18T13:52:00.883Z,82.70
2022-08-18T13:54:34.069Z,82.10
2022-08-18T13:57:04.269Z,82.20
2022-08-18T13:59:32.919Z,82.40
2022-08-18T14:02:02.366Z,82.90
2022-08-18T14:04:29.538Z,83.60
2022-08-18T14:06:59.040Z,83.70
2022-08-18T14:09:37.212Z,84.30
2022-08-18T14:12:21.491Z,82.90
2022-08-18T14:14:54.252Z,85.10
2022-08-18T14:17:24.463Z,84.50
2022-08-18T14:20:21.160Z,82.50
2022-08-18T14:23:13.001Z,82.70
2022-08-18T14:25:59.706Z,81.00
2022-08-18T14:28:28.340Z,80.10
2022-08-18T14:30:57.045Z,76.90
2022-08-18T14:33:49.555Z,75.60
2022-08-18T14:36:14.226Z,76.40
2022-08-18T14:38:41.596Z,73.90
2022-08-18T14:41:11.680Z,73.20
2022-08-18T14:44:12.525Z,75.00
2022-08-18T14:46:30.129Z,74.40
2022-08-18T14:48:57.816Z,73.70
2022-08-18T14:51:27.087Z,72.60
2022-08-18T14:53:55.270Z,72.40
2022-08-18T14:56:24.417Z,71.80
2022-08-18T14:58:55.849Z,69.50
2022-08-18T15:01:24.622Z,68.60
2022-08-18T15:03:54.486Z,68.90
2022-08-18T15:06:27.065Z,69.00
2022-08-18T15:08:57.114Z,69.90
2022-08-18T15:11:25.282Z,70.10
2022-08-18T15:13:55.112Z,70.60
2022-08-18T15:16:31.576Z,73.00
2022-08-18T15:19:00.364Z,73.10
2022-08-18T15:21:47.818Z,75.10
2022-08-18T15:24:39.643Z,77.40
2022-08-18T15:27:10.220Z,78.20
2022-08-18T15:29:41.612Z,80.10
2022-08-18T15:32:17.562Z,81.50
2022-08-18T15:34:46.909Z,85.60
2022-08-18T15:37:20.369Z,86.70
2022-08-18T15:40:21.562Z,90.00
2022-08-18T15:43:01.444Z,90.00
2022-08-18T15:45:37.793Z,91.20
2022-08-18T15:48:12.614Z,92.50
2022-08-18T15:50:40.405Z,92.60
2022-08-18T15:53:11.981Z,93.30
2022-08-18T15:55:40.475Z,92.20
2022-08-18T15:58:11.071Z,92.60
2022-08-18T16:00:48.031Z,92.50
2022-08-18T16:03:16.671Z,91.10
2022-08-18T16:05:52.626Z,92.10
2022-08-18T16:08:25.424Z,92.40
2022-08-18T16:10:53.949Z,92.60
2022-08-18T16:13:21.829Z,92.80
2022-08-18T16:15:50.015Z,93.50
2022-08-18T16:18:20.890Z,93.00
2022-08-18T16:20:48.570Z,93.20
2022-08-18T16:23:19.849Z,93.50
2022-08-18T16:25:46.795Z,94.00
2022-08-18T16:28:13.935Z,94.20
2022-08-18T16:30:41.376Z,95.00
2022-08-18T16:33:08.576Z,95.40
2022-08-18T16:35:37.434Z,95.50
2022-08-18T16:38:09.175Z,95.70
2022-08-18T16:40:37.546Z,96.00
2022-08-18T16:43:05.965Z,97.00
2022-08-18T16:45:36.140Z,97.80
2022-08-18T16:48:03.709Z,97.80
2022-08-18T16:50:30.694Z,98.00
2022-08-18T16:52:57.917Z,97.30
2022-08-18T16:55:25.255Z,97.90
2022-08-18T16:58:15.288Z,98.70
2022-08-18T17:01:02.342Z,99.20
2022-08-18T17:03:47.976Z,99.90
2022-08-18T17:06:18.250Z,99.90
2022-08-18T17:08:46.258Z,99.90
2022-08-18T17:11:17.550Z,99.90
2022-08-18T17:13:46.640Z,99.90
2022-08-18T17:16:14.336Z,99.90
2022-08-18T17:18:42.036Z,99.90
2022-08-18T17:21:12.494Z,99.90
2022-08-18T17:23:40.901Z,99.90
2022-08-18T17:26:17.607Z,99.90
2022-08-18T17:28:52.620Z,99.90
2022-08-18T17:31:21.059Z,99.90
2022-08-18T17:33:49.017Z,99.90
2022-08-18T17:36:28.235Z,99.90
2022-08-18T17:39:00.097Z,99.90
2022-08-18T17:41:27.925Z,99.90
2022-08-18T17:44:00.836Z,99.90
2022-08-18T17:46:37.083Z,99.90
2022-08-18T17:49:14.490Z,99.90
2022-08-18T17:51:55.331Z,99.90
2022-08-18T17:54:43.542Z,99.90
2022-08-18T17:57:35.937Z,99.90
2022-08-18T18:00:12.753Z,99.90
2022-08-18T18:02:47.916Z,99.90
2022-08-18T18:05:19.653Z,99.90
2022-08-18T18:07:52.904Z,99.90
2022-08-18T18:10:25.760Z,99.90
2022-08-18T18:13:10.189Z,99.90
2022-08-18T18:15:40.877Z,99.90
2022-08-18T18:18:21.855Z,99.90
2022-08-18T18:21:05.723Z,99.90
2022-08-18T18:23:41.346Z,99.90
2022-08-18T18:26:33.692Z,99.90
2022-08-18T18:29:19.475Z,99.90
2022-08-18T18:32:24.219Z,99.90
2022-08-18T18:35:15.666Z,99.90
2022-08-18T18:37:52.587Z,99.90
2022-08-18T18:40:35.815Z,99.90
2022-08-18T18:43:33.274Z,99.90
2022-08-18T18:46:18.944Z,99.90
2022-08-18T18:48:52.219Z,99.90
2022-08-18T18:51:47.047Z,99.90
2022-08-18T18:54:19.688Z,99.90
2022-08-18T18:56:54.097Z,99.90
2022-08-18T19:00:03.017Z,99.90
2022-08-18T19:02:49.129Z,99.90
2022-08-18T19:05:52.252Z,99.90
2022-08-18T19:08:22.100Z,99.90
2022-08-18T19:11:14.392Z,99.90
2022-08-18T19:13:49.493Z,99.90
2022-08-18T19:16:28.413Z,99.90
2022-08-18T19:19:38.307Z,99.90
2022-08-18T19:22:23.091Z,99.90
2022-08-18T19:25:14.199Z,99.90
2022-08-18T19:27:56.931Z,99.90
2022-08-18T19:30:24.212Z,99.90
2022-08-18T19:33:00.707Z,99.90
2022-08-18T19:35:39.661Z,99.90
2022-08-18T19:38:19.190Z,99.90
2022-08-18T19:40:54.829Z,99.90
2022-08-18T19:43:38.985Z,99.90
2022-08-18T19:46:38.122Z,99.90
2022-08-18T19:49:12.134Z,99.90
2022-08-18T19:51:41.821Z,99.90
2022-08-18T19:54:36.697Z,99.90
2022-08-18T19:57:27.566Z,99.90
2022-08-18T20:00:13.007Z,99.90
2022-08-18T20:03:04.891Z,99.90
2022-08-18T20:05:41.608Z,99.90
2022-08-18T20:08:15.079Z,99.90
2022-08-18T20:10:57.926Z,99.90
2022-08-18T20:13:41.301Z,99.90
2022-08-18T20:16:45.207Z,99.90
2022-08-18T20:19:31.227Z,99.90
2022-08-18T20:22:03.714Z,99.90
2022-08-18T20:24:30.738Z,99.90
2022-08-18T20:27:21.750Z,99.90
2022-08-18T20:30:00.105Z,99.90
2022-08-18T20:32:34.430Z,99.90
2022-08-18T20:35:21.389Z,99.90
2022-08-18T20:37:48.375Z,99.90
2022-08-18T20:40:41.062Z,99.90
2022-08-18T20:43:24.121Z,99.90
2022-08-18T20:45:58.816Z,99.90
2022-08-18T20:48:35.895Z,99.90
2022-08-18T20:51:13.592Z,99.90
2022-08-18T20:54:03.975Z,99.90
2022-08-18T20:56:55.483Z,99.90
2022-08-18T20:59:39.042Z,99.90
2022-08-18T21:02:31.821Z,99.90
2022-08-18T21:05:00.727Z,99.90
2022-08-18T21:07:37.767Z,99.90
2022-08-18T21:10:12.131Z,99.90
2022-08-18T21:12:52.437Z,99.90
2022-08-18T21:15:26.863Z,99.90
2022-08-18T21:18:20.938Z,99.90
2022-08-18T21:20:50.151Z,99.90
2022-08-18T21:23:24.845Z,99.90
2022-08-18T21:25:55.545Z,99.90
2022-08-18T21:28:25.452Z,99.90
2022-08-18T21:31:29.089Z,99.90
2022-08-18T21:34:01.083Z,99.90
2022-08-18T21:36:32.515Z,99.90
2022-08-18T21:39:07.672Z,99.90
2022-08-18T21:41:42.546Z,99.90
2022-08-18T21:44:21.605Z,99.90
2022-08-18T21:46:49.213Z,99.90
2022-08-18T21:49:27.249Z,99.90
2022-08-18T21:51:54.627Z,99.90
2022-08-18T21:54:25.215Z,99.90
2022-08-18T21:57:26.736Z,99.90
2022-08-18T22:00:23.815Z,99.90
2022-08-18T22:03:07.864Z,99.90
2022-08-18T22:05:58.218Z,99.90
2022-08-18T22:08:28.673Z,99.90
2022-08-18T22:11:59.856Z,99.90
2022-08-18T22:14:53.913Z,99.90
2022-08-18T22:17:31.572Z,99.90
2022-08-18T22:20:36.872Z,99.90
2022-08-18T22:23:31.506Z,99.90
2022-08-18T22:26:16.502Z,99.90
2022-08-18T22:29:01.295Z,99.90
2022-08-18T22:31:37.574Z,99.90
2022-08-18T22:34:14.397Z,99.90
2022-08-18T22:36:54.080Z,99.90
2022-08-18T22:39:28.569Z,99.90
2022-08-18T22:41:56.098Z,99.90
2022-08-18T22:44:23.435Z,99.90
2022-08-18T22:46:50.903Z,99.90
2022-08-18T22:49:18.699Z,99.90
2022-08-18T22:51:48.387Z,99.90
2022-08-18T22:54:17.064Z,99.90
2022-08-18T22:56:55.177Z,99.90
2022-08-18T22:59:26.775Z,99.90
2022-08-18T23:01:54.568Z,99.90
2022-08-18T23:04:23.130Z,99.90
2022-08-18T23:06:53.811Z,99.90
2022-08-18T23:09:26.987Z,99.90
2022-08-18T23:11:59.871Z,99.90
2022-08-18T23:14:28.274Z,99.90
2022-08-18T23:16:55.405Z,99.90
2022-08-18T23:19:22.903Z,99.90
2022-08-18T23:21:51.715Z,99.90
2022-08-18T23:24:20.240Z,99.90
2022-08-18T23:26:47.559Z,99.90
2022-08-18T23:29:14.856Z,99.90
2022-08-18T23:31:44.926Z,99.90
2022-08-18T23:34:14.762Z,99.90
2022-08-18T23:36:45.577Z,99.90
2022-08-18T23:39:14.582Z,99.90
2022-08-18T23:41:41.604Z,99.90
2022-08-18T23:44:08.870Z,99.90
2022-08-18T23:46:36.283Z,99.90
2022-08-18T23:49:07.640Z,99.90
2022-08-18T23:51:43.931Z,99.90
2022-08-18T23:54:17.727Z,99.90
2022-08-18T23:56:45.585Z,99.90
2022-08-18T23:59:13.610Z,99.90
